createdAt,value
2017-08-10T00:00:21.677Z,11.70
2017-08-10T00:02:49.602Z,10.80
2017-08-10T00:05:17.466Z,12.57
2017-08-10T00:07:45.347Z,12.17
2017-08-10T00:10:13.080Z,10.77
2017-08-10T00:12:40.890Z,12.53
2017-08-10T00:15:08.720Z,10.70
2017-08-10T00:17:36.600Z,10.50
2017-08-10T00:20:04.441Z,11.23
2017-08-10T00:23:07.125Z,10.40
2017-08-10T00:25:34.869Z,11.43
2017-08-10T00:28:02.846Z,10.90
2017-08-10T00:30:30.670Z,10.50
2017-08-10T00:33:06.763Z,10.00
2017-08-10T00:35:34.594Z,10.10
2017-08-10T00:38:02.428Z,11.00
2017-08-10T00:40:30.206Z,11.03
2017-08-10T00:42:57.984Z,12.00
2017-08-10T00:45:25.865Z,11.20
2017-08-10T00:47:53.711Z,12.20
2017-08-10T00:50:21.583Z,12.87
2017-08-10T00:52:49.431Z,12.30
2017-08-10T00:55:17.307Z,10.33
2017-08-10T00:57:45.610Z,11.27
2017-08-10T01:00:13.580Z,12.27
2017-08-10T01:02:41.439Z,12.50
2017-08-10T01:05:09.329Z,12.10
2017-08-10T01:07:37.147Z,12.13
2017-08-10T01:10:06.290Z,11.87
2017-08-10T01:12:34.153Z,12.30
2017-08-10T01:15:02.091Z,11.20
2017-08-10T01:17:29.956Z,11.33
2017-08-10T01:19:57.806Z,12.27
2017-08-10T01:22:25.681Z,12.13
2017-08-10T01:24:53.496Z,13.33
2017-08-10T01:27:21.372Z,12.43
2017-08-10T01:29:49.214Z,12.53
2017-08-10T01:32:17.120Z,12.97
2017-08-10T01:34:44.861Z,12.70
2017-08-10T01:37:12.704Z,11.53
2017-08-10T01:39:40.580Z,11.77
2017-08-10T01:42:08.318Z,13.60
2017-08-10T01:44:36.193Z,12.83
2017-08-10T01:47:04.048Z,11.03
2017-08-10T01:49:31.941Z,11.00
2017-08-10T01:51:59.681Z,10.00
2017-08-10T01:54:27.483Z,10.77
2017-08-10T01:56:55.305Z,11.77
2017-08-10T01:59:23.200Z,9.90
2017-08-10T02:01:51.073Z,10.50
2017-08-10T02:04:18.964Z,11.70
2017-08-10T02:06:46.869Z,9.60
2017-08-10T02:09:14.723Z,10.90
2017-08-10T02:11:42.589Z,10.50
2017-08-10T02:14:10.414Z,10.63
2017-08-10T02:16:38.282Z,12.33
2017-08-10T02:19:06.108Z,13.27
2017-08-10T02:21:33.975Z,11.00
2017-08-10T02:24:01.686Z,11.23
2017-08-10T02:26:29.583Z,11.60
2017-08-10T02:28:57.399Z,12.63
2017-08-10T02:31:25.128Z,11.07
2017-08-10T02:33:52.994Z,11.33
2017-08-10T02:36:20.829Z,10.80
2017-08-10T02:38:48.688Z,10.27
2017-08-10T02:41:16.514Z,10.83
2017-08-10T02:43:44.377Z,12.90
2017-08-10T02:46:12.214Z,11.87
2017-08-10T02:48:40.091Z,12.67
2017-08-10T02:51:07.948Z,11.97
2017-08-10T02:53:35.853Z,11.27
2017-08-10T02:56:03.604Z,12.00
2017-08-10T02:58:31.475Z,12.40
2017-08-10T03:00:59.273Z,12.07
2017-08-10T03:03:27.136Z,11.67
2017-08-10T03:05:54.936Z,10.70
2017-08-10T03:08:22.761Z,11.50
2017-08-10T03:10:50.640Z,10.70
2017-08-10T03:13:18.482Z,10.30
2017-08-10T03:15:46.363Z,10.03
2017-08-10T03:18:14.195Z,9.90
2017-08-10T03:20:42.040Z,10.60
2017-08-10T03:23:09.979Z,10.20
2017-08-10T03:25:37.849Z,10.67
2017-08-10T03:28:05.712Z,10.13
2017-08-10T03:30:36.622Z,11.73
2017-08-10T03:33:04.414Z,12.10
2017-08-10T03:35:32.373Z,11.27
2017-08-10T03:38:00.263Z,10.33
2017-08-10T03:40:28.112Z,10.23
2017-08-10T03:42:55.911Z,11.40
2017-08-10T03:45:23.785Z,10.87
2017-08-10T03:47:51.621Z,11.20
2017-08-10T03:50:19.388Z,11.03
2017-08-10T03:52:47.253Z,11.57
2017-08-10T03:55:15.168Z,11.60
2017-08-10T03:57:43.013Z,12.70
2017-08-10T04:00:10.899Z,10.90
2017-08-10T04:02:38.769Z,10.23
2017-08-10T04:05:06.604Z,11.40
2017-08-10T04:07:34.476Z,10.50
2017-08-10T04:10:02.319Z,10.70
2017-08-10T04:12:30.213Z,10.83
2017-08-10T04:14:58.055Z,11.13
2017-08-10T04:17:25.955Z,11.60
2017-08-10T04:19:53.810Z,11.60
2017-08-10T04:22:21.716Z,11.90
2017-08-10T04:24:49.600Z,11.67
2017-08-10T04:27:17.448Z,11.83
2017-08-10T04:29:45.325Z,12.03
2017-08-10T04:32:13.063Z,10.87
2017-08-10T04:34:40.937Z,12.03
2017-08-10T04:37:08.795Z,12.60
2017-08-10T04:39:36.699Z,11.30
2017-08-10T04:42:04.461Z,11.70
2017-08-10T04:44:32.217Z,13.27
2017-08-10T04:46:59.943Z,12.77
2017-08-10T04:49:27.655Z,14.17
2017-08-10T04:51:55.431Z,13.10
2017-08-10T04:54:23.148Z,12.77
2017-08-10T04:56:50.919Z,12.30
2017-08-10T04:59:18.662Z,13.70
2017-08-10T05:01:46.428Z,14.57
2017-08-10T05:04:14.194Z,14.37
2017-08-10T05:06:41.962Z,14.07
2017-08-10T05:09:09.697Z,14.30
2017-08-10T05:11:37.425Z,13.57
2017-08-10T05:14:05.216Z,12.90
2017-08-10T05:16:32.963Z,13.80
2017-08-10T05:19:00.716Z,13.50
2017-08-10T05:21:28.471Z,14.37
2017-08-10T05:23:56.265Z,14.10
2017-08-10T05:26:24.002Z,13.77
2017-08-10T05:28:51.832Z,13.33
2017-08-10T05:31:19.565Z,13.67
2017-08-10T05:33:47.297Z,13.90
2017-08-10T05:36:15.085Z,13.47
2017-08-10T05:38:42.840Z,15.20
2017-08-10T05:41:10.631Z,14.50
2017-08-10T05:43:38.414Z,15.33
2017-08-10T05:46:06.263Z,14.23
2017-08-10T05:48:34.000Z,12.93
2017-08-10T05:51:01.804Z,14.63
2017-08-10T05:53:29.552Z,14.37
2017-08-10T05:55:57.412Z,15.27
2017-08-10T05:58:25.243Z,15.30
2017-08-10T06:00:53.120Z,16.13
2017-08-10T06:03:20.988Z,16.00
2017-08-10T06:05:48.915Z,16.03
2017-08-10T06:08:16.777Z,16.00
2017-08-10T06:10:44.656Z,15.60
2017-08-10T06:13:12.549Z,17.00
2017-08-10T06:15:40.631Z,18.13
2017-08-10T06:18:08.430Z,18.33
2017-08-10T06:20:36.273Z,16.90
2017-08-10T06:23:04.170Z,18.07
2017-08-10T06:25:31.940Z,18.33
2017-08-10T06:27:59.845Z,18.60
2017-08-10T06:30:27.616Z,16.60
2017-08-10T06:32:55.440Z,17.90
2017-08-10T06:35:23.318Z,17.47
2017-08-10T06:37:51.208Z,17.70
2017-08-10T06:40:19.076Z,17.77
2017-08-10T06:42:47.000Z,18.90
2017-08-10T06:45:14.766Z,18.60
2017-08-10T06:47:42.565Z,18.60
2017-08-10T06:50:10.500Z,20.20
2017-08-10T06:52:38.401Z,19.60
2017-08-10T06:55:06.155Z,20.40
2017-08-10T06:57:33.956Z,20.57
2017-08-10T07:00:08.396Z,21.30
2017-08-10T07:02:36.237Z,19.20
2017-08-10T07:05:04.197Z,18.63
2017-08-10T07:07:32.052Z,19.03
2017-08-10T07:09:59.973Z,20.20
2017-08-10T07:12:27.824Z,18.80
2017-08-10T07:14:55.749Z,18.20
2017-08-10T07:17:23.614Z,17.23
2017-08-10T07:19:51.532Z,16.87
2017-08-10T07:22:19.437Z,17.90
2017-08-10T07:24:47.329Z,16.70
2017-08-10T07:27:15.179Z,16.90
2017-08-10T07:29:42.964Z,16.37
2017-08-10T07:32:10.725Z,16.77
2017-08-10T07:34:38.531Z,17.27
2017-08-10T07:37:06.337Z,17.43
2017-08-10T07:39:34.111Z,18.47
2017-08-10T07:42:01.924Z,18.03
2017-08-10T07:44:29.688Z,18.73
2017-08-10T07:46:57.506Z,18.23
2017-08-10T07:49:25.399Z,16.87
2017-08-10T07:51:53.201Z,17.73
2017-08-10T07:54:20.953Z,16.33
2017-08-10T07:56:48.773Z,18.40
2017-08-10T07:59:16.661Z,18.57
2017-08-10T08:01:44.566Z,16.90
2017-08-10T08:04:12.328Z,17.23
2017-08-10T08:06:40.205Z,16.50
2017-08-10T08:09:08.004Z,17.47
2017-08-10T08:11:35.751Z,18.53
2017-08-10T08:14:03.662Z,18.50
2017-08-10T08:16:31.489Z,18.27
2017-08-10T08:18:59.269Z,17.00
2017-08-10T08:21:27.854Z,17.53
2017-08-10T08:23:55.646Z,17.73
2017-08-10T08:26:23.471Z,18.00
2017-08-10T08:28:51.319Z,17.40
2017-08-10T08:31:19.522Z,17.13
2017-08-10T08:33:47.733Z,17.67
2017-08-10T08:36:15.503Z,16.00
2017-08-10T08:38:43.755Z,15.90
2017-08-10T08:41:11.573Z,14.97
2017-08-10T08:43:39.331Z,15.03
2017-08-10T08:46:07.150Z,15.23
2017-08-10T08:48:35.004Z,14.30
2017-08-10T08:51:02.901Z,15.00
2017-08-10T08:53:32.423Z,13.60
2017-08-10T08:56:00.846Z,13.60
2017-08-10T08:58:28.643Z,14.20
2017-08-10T09:00:56.977Z,13.00
2017-08-10T09:03:24.950Z,12.90
2017-08-10T09:05:53.736Z,13.37
2017-08-10T09:08:21.475Z,13.27
2017-08-10T09:10:49.393Z,13.70
2017-08-10T09:13:17.225Z,12.27
2017-08-10T09:15:45.087Z,12.43
2017-08-10T09:18:13.630Z,12.40
2017-08-10T09:20:41.658Z,11.60
2017-08-10T09:23:09.537Z,11.20
2017-08-10T09:25:38.364Z,10.90
2017-08-10T09:28:06.158Z,11.80
2017-08-10T09:30:33.891Z,13.00
2017-08-10T09:33:01.762Z,12.80
2017-08-10T09:35:29.593Z,12.50
2017-08-10T09:37:57.357Z,10.73
2017-08-10T09:40:25.212Z,10.97
2017-08-10T09:42:53.142Z,10.57
2017-08-10T09:45:20.981Z,9.10
2017-08-10T09:47:48.806Z,9.73
2017-08-10T09:50:16.652Z,11.23
2017-08-10T09:52:44.386Z,9.30
2017-08-10T09:55:12.277Z,10.37
2017-08-10T09:57:40.021Z,10.60
2017-08-10T10:00:07.855Z,11.97
2017-08-10T10:02:35.595Z,10.87
2017-08-10T10:05:03.536Z,10.70
2017-08-10T10:07:31.381Z,11.77
2017-08-10T10:09:59.190Z,11.33
2017-08-10T10:12:27.060Z,12.00
2017-08-10T10:14:54.926Z,10.37
2017-08-10T10:17:22.765Z,9.70
2017-08-10T10:19:50.563Z,7.27
2017-08-10T10:22:18.712Z,8.40
2017-08-10T10:24:46.450Z,8.00
2017-08-10T10:27:14.240Z,7.73
2017-08-10T10:29:41.974Z,7.10
2017-08-10T10:32:09.765Z,6.73
2017-08-10T10:34:37.491Z,6.80
2017-08-10T10:37:05.320Z,7.87
2017-08-10T10:39:33.111Z,7.23
2017-08-10T10:42:00.890Z,6.00
2017-08-10T10:44:28.620Z,4.90
2017-08-10T10:46:56.435Z,5.50
2017-08-10T10:49:24.171Z,5.40
2017-08-10T10:51:51.998Z,4.90
2017-08-10T10:54:19.783Z,5.37
2017-08-10T10:56:47.582Z,4.80
2017-08-10T10:59:15.328Z,4.87
2017-08-10T11:01:43.075Z,4.37
2017-08-10T11:04:11.445Z,2.90
2017-08-10T11:06:39.293Z,3.80
2017-08-10T11:09:07.248Z,3.40
2017-08-10T11:11:35.191Z,4.90
2017-08-10T11:16:37.197Z,5.40
2017-08-10T11:19:05.112Z,5.60
2017-08-10T11:21:33.073Z,6.60
2017-08-10T11:24:00.917Z,4.57
2017-08-10T11:26:28.772Z,4.37
2017-08-10T11:28:56.705Z,4.90
2017-08-10T11:31:26.690Z,4.77
2017-08-10T11:33:54.583Z,3.83
2017-08-10T11:36:22.436Z,4.67
2017-08-10T11:38:50.332Z,4.57
2017-08-10T11:41:18.177Z,3.30
2017-08-10T11:43:46.017Z,3.03
2017-08-10T11:46:14.017Z,2.90
2017-08-10T11:48:41.869Z,3.50
2017-08-10T11:51:09.784Z,3.10
2017-08-10T11:53:37.663Z,2.53
2017-08-10T11:56:05.582Z,3.03
2017-08-10T11:58:33.489Z,3.40
2017-08-10T12:01:01.435Z,3.23
2017-08-10T12:03:29.329Z,3.30
2017-08-10T12:05:57.280Z,3.07
2017-08-10T12:08:25.142Z,3.17
2017-08-10T12:10:53.050Z,2.53
2017-08-10T12:13:20.934Z,3.03
2017-08-10T12:15:48.873Z,3.03
2017-08-10T12:18:16.765Z,3.47
2017-08-10T12:20:44.622Z,2.83
2017-08-10T12:23:12.712Z,3.50
2017-08-10T12:25:40.496Z,2.90
2017-08-10T12:28:08.405Z,3.90
2017-08-10T12:30:36.418Z,4.37
2017-08-10T12:33:04.294Z,4.13
2017-08-10T12:35:32.136Z,5.60
2017-08-10T12:38:00.029Z,4.57
2017-08-10T12:40:27.860Z,5.07
2017-08-10T12:42:55.700Z,4.50
2017-08-10T12:45:23.531Z,3.80
2017-08-10T12:47:51.449Z,2.47
2017-08-10T12:50:19.324Z,2.50
2017-08-10T12:52:47.220Z,1.80
2017-08-10T12:55:15.085Z,2.30
2017-08-10T12:57:42.920Z,1.73
2017-08-10T13:00:10.789Z,1.93
2017-08-10T13:02:38.582Z,1.40
2017-08-10T13:05:06.723Z,1.87
2017-08-10T13:07:34.590Z,1.97
2017-08-10T13:10:02.470Z,2.10
2017-08-10T13:12:30.351Z,2.10
2017-08-10T13:14:58.172Z,1.90
2017-08-10T13:17:26.086Z,1.50
2017-08-10T13:19:54.036Z,2.20
2017-08-10T13:22:21.896Z,2.10
2017-08-10T13:24:49.831Z,2.03
2017-08-10T13:27:17.635Z,2.30
2017-08-10T13:29:45.394Z,2.17
2017-08-10T13:32:13.187Z,2.23
2017-08-10T13:34:40.984Z,2.20
2017-08-10T13:37:08.747Z,2.60
2017-08-10T13:39:36.530Z,2.37
2017-08-10T13:42:04.320Z,2.17
2017-08-10T13:44:32.084Z,2.30
2017-08-10T13:46:59.879Z,2.10
2017-08-10T13:49:27.676Z,2.10
2017-08-10T13:51:55.591Z,1.90
2017-08-10T13:54:23.716Z,2.00
2017-08-10T13:56:51.459Z,1.80
2017-08-10T13:59:19.258Z,1.73
2017-08-10T14:01:46.967Z,1.90
2017-08-10T14:04:14.782Z,2.50
2017-08-10T14:06:42.511Z,2.00
2017-08-10T14:09:10.265Z,2.10
2017-08-10T14:11:37.992Z,1.90
2017-08-10T14:14:05.744Z,2.00
2017-08-10T14:16:33.479Z,2.07
2017-08-10T14:19:01.252Z,2.13
2017-08-10T14:21:29.172Z,1.90
2017-08-10T14:23:56.965Z,1.67
2017-08-10T14:26:24.783Z,1.90
2017-08-10T14:28:52.545Z,1.93
2017-08-10T14:31:20.434Z,1.77
2017-08-10T14:33:48.301Z,1.47
2017-08-10T14:36:16.221Z,1.50
2017-08-10T14:38:44.051Z,1.80
2017-08-10T14:41:11.934Z,1.70
2017-08-10T14:43:39.777Z,1.70
2017-08-10T14:46:07.587Z,1.70
2017-08-10T14:48:35.400Z,1.60
2017-08-10T14:51:03.285Z,1.80
2017-08-10T14:53:31.117Z,1.57
2017-08-10T14:55:58.985Z,1.53
2017-08-10T14:58:26.722Z,1.83
2017-08-10T15:00:54.613Z,1.40
2017-08-10T15:03:22.504Z,2.13
2017-08-10T15:05:50.329Z,1.70
2017-08-10T15:08:18.201Z,2.40
2017-08-10T15:10:46.038Z,1.73
2017-08-10T15:13:13.914Z,1.97
2017-08-10T15:15:41.731Z,2.40
2017-08-10T15:18:09.643Z,1.90
2017-08-10T15:20:37.574Z,2.00
2017-08-10T15:23:05.469Z,1.70
2017-08-10T15:25:33.215Z,2.00
2017-08-10T15:28:01.109Z,1.97
2017-08-10T15:30:28.924Z,2.00
2017-08-10T15:32:56.831Z,2.07
2017-08-10T15:35:24.688Z,2.00
2017-08-10T15:37:52.512Z,2.00
2017-08-10T15:40:20.405Z,2.30
2017-08-10T15:42:48.217Z,2.40
2017-08-10T15:45:16.089Z,2.20
2017-08-10T15:47:43.834Z,2.57
2017-08-10T15:50:11.749Z,2.40
2017-08-10T15:52:39.685Z,2.37
2017-08-10T15:55:07.595Z,2.20
2017-08-10T15:57:35.448Z,2.10
2017-08-10T16:00:03.328Z,2.13
2017-08-10T16:02:31.164Z,2.50
2017-08-10T16:04:59.089Z,2.20
2017-08-10T16:07:26.892Z,2.00
2017-08-10T16:09:54.749Z,2.47
2017-08-10T16:12:22.621Z,2.60
2017-08-10T16:14:50.361Z,1.90
2017-08-10T16:17:18.312Z,2.23
2017-08-10T16:19:46.138Z,2.23
2017-08-10T16:22:14.007Z,2.00
2017-08-10T16:24:41.832Z,1.90
2017-08-10T16:27:09.708Z,1.90
2017-08-10T16:29:37.569Z,2.17
2017-08-10T16:32:05.589Z,1.97
2017-08-10T16:34:33.456Z,1.87
2017-08-10T16:37:01.423Z,2.00
2017-08-10T16:39:29.245Z,2.33
2017-08-10T16:41:57.137Z,1.77
2017-08-10T16:44:24.996Z,2.43
2017-08-10T16:46:52.866Z,1.97
2017-08-10T16:49:20.715Z,2.00
2017-08-10T16:51:48.565Z,1.70
2017-08-10T16:54:16.468Z,2.20
2017-08-10T16:56:44.376Z,2.13
2017-08-10T16:59:12.264Z,1.90
2017-08-10T17:01:40.119Z,1.90
2017-08-10T17:04:07.913Z,2.40
2017-08-10T17:06:35.648Z,2.03
2017-08-10T17:09:03.492Z,1.70
2017-08-10T17:11:31.252Z,2.17
2017-08-10T17:13:59.042Z,2.20
2017-08-10T17:16:26.762Z,2.00
2017-08-10T17:18:54.487Z,2.00
2017-08-10T17:21:22.268Z,2.10
2017-08-10T17:23:49.980Z,2.13
2017-08-10T17:26:17.760Z,2.30
2017-08-10T17:28:45.529Z,2.00
2017-08-10T17:31:13.316Z,1.90
2017-08-10T17:33:41.062Z,2.40
2017-08-10T17:36:08.871Z,2.10
2017-08-10T17:38:36.590Z,2.47
2017-08-10T17:41:04.372Z,2.50
2017-08-10T17:43:32.118Z,2.50
2017-08-10T17:45:59.926Z,2.47
2017-08-10T17:48:27.648Z,2.20
2017-08-10T17:50:55.376Z,2.00
2017-08-10T17:53:23.169Z,2.20
2017-08-10T17:55:50.944Z,2.50
2017-08-10T17:58:18.726Z,2.20
2017-08-10T18:00:46.484Z,2.50
2017-08-10T18:03:14.289Z,2.67
2017-08-10T18:05:42.039Z,2.17
2017-08-10T18:08:09.830Z,1.90
2017-08-10T18:10:37.581Z,1.97
2017-08-10T18:13:05.449Z,2.00
2017-08-10T18:15:33.189Z,2.53
2017-08-10T18:18:00.988Z,2.53
2017-08-10T18:20:28.730Z,2.20
2017-08-10T18:22:56.591Z,2.70
2017-08-10T18:25:24.505Z,2.70
2017-08-10T18:27:52.404Z,3.37
2017-08-10T18:30:20.344Z,3.17
2017-08-10T18:32:48.219Z,2.53
2017-08-10T18:35:16.116Z,2.60
2017-08-10T18:37:43.968Z,2.90
2017-08-10T18:40:11.836Z,3.40
2017-08-10T18:42:39.667Z,3.07
2017-08-10T18:45:07.572Z,3.20
2017-08-10T18:47:35.410Z,3.07
2017-08-10T18:50:03.315Z,3.17
2017-08-10T18:52:31.173Z,2.90
2017-08-10T18:54:59.082Z,3.13
2017-08-10T18:57:26.943Z,3.20
2017-08-10T18:59:54.809Z,3.20
2017-08-10T19:02:22.763Z,3.40
2017-08-10T19:04:50.669Z,3.17
2017-08-10T19:07:18.571Z,3.67
2017-08-10T19:09:46.472Z,3.27
2017-08-10T19:12:14.305Z,3.27
2017-08-10T19:14:42.046Z,3.63
2017-08-10T19:17:09.840Z,3.30
2017-08-10T19:19:37.679Z,3.50
2017-08-10T19:22:05.471Z,3.83
2017-08-10T19:24:33.334Z,3.33
2017-08-10T19:27:01.121Z,3.50
2017-08-10T19:29:28.949Z,3.70
2017-08-10T19:31:56.784Z,4.00
2017-08-10T19:34:24.673Z,3.50
2017-08-10T19:36:52.535Z,3.37
2017-08-10T19:39:20.422Z,3.10
2017-08-10T19:41:48.177Z,3.53
2017-08-10T19:44:15.959Z,4.13
2017-08-10T19:46:43.782Z,3.63
2017-08-10T19:49:11.592Z,3.83
2017-08-10T19:51:39.348Z,3.50
2017-08-10T19:54:07.233Z,3.40
2017-08-10T19:56:35.035Z,3.37
2017-08-10T19:59:02.876Z,3.40
2017-08-10T20:01:30.644Z,3.73
2017-08-10T20:03:58.437Z,3.27
2017-08-10T20:06:26.272Z,3.17
2017-08-10T20:08:54.016Z,3.40
2017-08-10T20:11:21.808Z,3.50
2017-08-10T20:13:49.559Z,3.50
2017-08-10T20:16:17.368Z,3.90
2017-08-10T20:18:45.083Z,3.77
2017-08-10T20:21:12.889Z,3.60
2017-08-10T20:23:40.724Z,3.83
2017-08-10T20:26:08.507Z,3.87
2017-08-10T20:28:36.269Z,3.80
2017-08-10T20:31:04.101Z,3.63
2017-08-10T20:33:31.888Z,3.77
2017-08-10T20:35:59.673Z,3.27
2017-08-10T20:38:27.486Z,4.13
2017-08-10T20:40:55.261Z,3.90
2017-08-10T20:43:23.066Z,3.70
2017-08-10T20:45:50.779Z,3.30
2017-08-10T20:48:18.612Z,4.00
2017-08-10T20:50:46.370Z,3.63
2017-08-10T20:53:14.156Z,3.67
2017-08-10T20:55:41.928Z,4.30
2017-08-10T20:58:09.868Z,3.50
2017-08-10T21:00:37.620Z,3.30
2017-08-10T21:03:05.476Z,4.10
2017-08-10T21:05:33.274Z,3.53
2017-08-10T21:08:01.023Z,3.53
2017-08-10T21:10:28.804Z,3.60
2017-08-10T21:12:56.593Z,3.47
2017-08-10T21:15:24.424Z,3.77
2017-08-10T21:17:52.314Z,3.67
2017-08-10T21:20:20.197Z,3.67
2017-08-10T21:22:48.022Z,3.47
2017-08-10T21:25:15.901Z,3.80
2017-08-10T21:27:43.747Z,3.93
2017-08-10T21:30:11.643Z,3.80
2017-08-10T21:32:39.475Z,3.63
2017-08-10T21:35:07.336Z,3.37
2017-08-10T21:37:35.160Z,3.30
2017-08-10T21:40:02.969Z,3.80
2017-08-10T21:42:30.886Z,3.67
2017-08-10T21:44:58.692Z,3.73
2017-08-10T21:47:26.583Z,3.70
2017-08-10T21:49:54.409Z,3.10
2017-08-10T21:52:22.289Z,3.20
2017-08-10T21:54:50.117Z,4.03
2017-08-10T21:57:17.949Z,3.57
2017-08-10T21:59:45.769Z,3.17
2017-08-10T22:02:13.635Z,3.40
2017-08-10T22:04:41.390Z,3.10
2017-08-10T22:07:09.149Z,3.70
2017-08-10T22:09:36.977Z,3.60
2017-08-10T22:12:04.849Z,3.50
2017-08-10T22:14:32.683Z,3.10
2017-08-10T22:17:00.536Z,3.70
2017-08-10T22:19:28.412Z,3.37
2017-08-10T22:21:56.147Z,4.23
2017-08-10T22:24:23.993Z,3.90
2017-08-10T22:26:51.732Z,3.80
2017-08-10T22:29:19.607Z,3.80
2017-08-10T22:31:47.427Z,4.43
2017-08-10T22:34:15.316Z,3.87
2017-08-10T22:36:43.143Z,4.37
2017-08-10T22:39:11.022Z,3.93
2017-08-10T22:41:38.849Z,4.27
2017-08-10T22:44:06.729Z,3.63
2017-08-10T22:46:34.562Z,3.70
2017-08-10T22:49:02.458Z,4.00
2017-08-10T22:51:30.273Z,4.10
2017-08-10T22:53:58.028Z,4.20
2017-08-10T22:56:25.798Z,4.10
2017-08-10T22:58:53.581Z,3.60
2017-08-10T23:01:21.450Z,4.07
2017-08-10T23:03:49.333Z,4.20
2017-08-10T23:06:17.209Z,3.97
2017-08-10T23:08:45.049Z,4.13
2017-08-10T23:11:12.926Z,3.63
2017-08-10T23:13:40.761Z,4.00
2017-08-10T23:16:08.640Z,4.53
2017-08-10T23:18:36.359Z,3.77
2017-08-10T23:21:04.124Z,4.00
2017-08-10T23:23:31.847Z,4.10
2017-08-10T23:25:59.644Z,4.10
2017-08-10T23:28:27.472Z,4.50
2017-08-10T23:30:55.289Z,4.30
2017-08-10T23:33:23.207Z,3.90
2017-08-10T23:35:51.045Z,4.00
2017-08-10T23:38:18.924Z,4.07
2017-08-10T23:40:46.750Z,4.20
2017-08-10T23:43:14.628Z,5.27
2017-08-10T23:45:42.425Z,4.10
2017-08-10T23:48:10.332Z,4.63
2017-08-10T23:50:38.148Z,4.53
2017-08-10T23:53:05.942Z,4.63
2017-08-10T23:55:33.767Z,3.90
2017-08-10T23:58:01.535Z,4.50
